EST,Max TemperatureF,Mean TemperatureF,Min TemperatureF,Max Dew PointF,MeanDew PointF,Min DewpointF,Max Humidity, Mean Humidity, Min Humidity, Max Sea Level PressureIn, Mean Sea Level PressureIn, Min Sea Level PressureIn, Max VisibilityMiles, Mean VisibilityMiles, Min VisibilityMiles, Max Wind SpeedMPH, Mean Wind SpeedMPH, Max Gust SpeedMPH,PrecipitationIn, CloudCover, Events, WindDirDegrees
2013-11-1,49,43,37,49,41,34,98,92,84,29.68,29.35,29.01,10,9,3,23,12,32,0.00,8,Rain,320
2013-11-2,40,36,30,36,31,26,98,83,67,30.16,29.92,29.69,10,10,10,14,6,17,0.00,7,Rain,358
2013-11-3,45,36,26,37,30,25,96,81,65,30.32,30.27,30.15,10,10,10,15,4,24,0.00,5,Rain,137
2013-11-4,48,45,42,44,37,35,88,73,60,30.31,30.19,30.08,10,10,4,23,18,33,0.00,6,Rain,161
2013-11-5,50,45,40,46,41,38,98,87,66,30.23,30.15,29.98,10,9,2,13,6,18,0.02,4,Rain,214
2013-11-6,41,38,34,42,36,28,99,92,76,29.98,29.82,29.70,10,8,2,21,10,28,0.07,8,Rain,335
2013-11-7,39,34,29,30,28,26,92,78,61,30.07,30.02,29.98,10,10,2,15,10,23,0.00,8,Snow,280
2013-11-8,42,36,30,37,28,21,92,72,44,30.19,30.11,29.98,10,10,7,15,7,22,0.01,6,Rain,240
2013-11-9,44,40,37,42,38,33,97,90,79,29.97,29.70,29.58,10,8,3,20,12,29,0.05,8,Rain,224
2013-11-10,40,37,34,36,32,27,96,82,64,30.15,30.03,29.76,10,9,3,18,11,24,0.01,7,Rain-Snow,282
2013-11-11,41,32,22,33,24,17,96,84,62,30.39,30.14,29.94,10,6,0,18,11,30,0.02,7,Rain-Snow,307
2013-11-12,29,24,19,22,15,9,87,70,52,30.54,30.48,30.39,10,9,2,16,10,24,0.00,5,Snow,285
2013-11-13,41,32,22,32,23,9,77,68,55,30.39,30.07,29.80,10,10,10,25,10,41,0.00,0,,226
2013-11-14,42,39,36,36,32,29,95,77,62,29.83,29.80,29.77,10,10,5,15,9,21,0.00,4,Rain,220
2013-11-15,45,38,31,40,36,30,96,88,77,29.88,29.83,29.78,10,9,5,13,5,17,0.00,2,,211
2013-11-16,50,44,39,49,44,39,99,95,87,29.88,29.72,29.44,10,5,1,17,10,28,0.00,6,Rain,167
2013-11-17,52,46,41,52,47,37,100,97,85,29.46,29.28,29.08,10,5,0,22,9,33,0.00,8,Fog-Rain,259
2013-11-18,40,34,29,36,25,19,92,75,64,30.11,29.69,29.24,10,8,1,29,19,43,0.00,8,Snow,292
2013-11-19,38,32,26,30,22,18,82,71,62,30.35,30.27,30.12,10,10,10,21,9,28,0.00,5,,225
2013-11-20,42,40,38,34,31,29,80,71,61,30.27,30.22,30.15,10,10,10,20,14,28,0.00,5,,174
2013-11-21,41,38,33,38,36,32,98,93,68,30.20,30.15,30.12,10,6,2,13,5,21,0.02,8,Rain,253
2013-11-22,33,28,23,32,23,15,96,78,56,30.35,30.28,30.20,10,9,2,21,13,26,0.00,6,Snow,318
2013-11-23,25,18,11,18,11,7,88,78,61,30.53,30.42,30.25,10,5,0,22,15,33,0.00,7,Snow,314
2013-11-24,28,18,8,18,9,2,87,72,58,30.53,30.39,30.04,10,9,2,24,11,38,0.00,5,Snow,252
2013-11-25,34,30,26,27,21,14,90,68,57,30.03,29.84,29.77,10,9,1,21,13,34,0.00,8,Snow,235
2013-11-26,33,22,12,27,17,6,89,75,56,30.07,29.96,29.84,10,8,1,15,9,22,0.00,7,Snow,302
2013-11-27,25,18,8,17,12,6,92,82,59,30.18,30.11,30.04,10,8,1,15,8,23,0.00,4,Snow,327
2013-11-28,24,15,6,21,15,3,92,88,82,30.43,30.24,30.17,10,7,0,10,3,,0.01,7,Snow,46
2013-11-29,32,21,10,27,18,8,93,84,72,30.56,30.48,30.36,10,10,4,18,3,28,0.00,7,Snow,188
2013-11-30,36,32,28,31,28,27,94,84,73,30.35,30.11,30.01,10,7,2,18,10,28,0.00,8,Snow,243